< < Back
Terminal Aerodrome Forecast


Current Version              Previous Versions:   1  2  3  4  5  6  7  8  9  

Terminal Aerodrome Forecast

546
FTUS42 KGSP 241158 CCA
TAFHKY
TAF COR
KHKY 241158Z 2412/2512 18004KT P6SM FEW250=

Latest METAR

611
SAUS70 KWBC 242000 RRH
MTRHKY
METAR KHKY 241953Z AUTO 00000KT 10SM CLR 32/21 A3003 RMK AO2 SLP145
T03220211


USA.gov is the U.S. government's official web portal to all federal, state and local government web resources and services.